sensor_id;sensor_type;location;lat;lon;timestamp;P1;durP1;ratioP1;P2;durP2;ratioP2
9675;SDS011;4876;42.656;23.292;2024-02-26T00:01:48;13.82;;;6.95;;
9675;SDS011;4876;42.656;23.292;2024-02-26T00:04:14;14.98;;;7.55;;
9675;SDS011;4876;42.656;23.292;2024-02-26T00:06:39;13.25;;;7.15;;
9675;SDS011;4876;42.656;23.292;2024-02-26T00:09:11;13.82;;;6.40;;
9675;SDS011;4876;42.656;23.292;2024-02-26T00:11:36;14.13;;;7.43;;
9675;SDS011;4876;42.656;23.292;2024-02-26T00:14:02;13.82;;;7.38;;
9675;SDS011;4876;42.656;23.292;2024-02-26T00:16:28;15.45;;;7.97;;
9675;SDS011;4876;42.656;23.292;2024-02-26T00:18:54;18.17;;;7.75;;
9675;SDS011;4876;42.656;23.292;2024-02-26T00:21:20;15.45;;;7.43;;
9675;SDS011;4876;42.656;23.292;2024-02-26T00:23:45;14.75;;;7.30;;
9675;SDS011;4876;42.656;23.292;2024-02-26T00:26:11;13.68;;;6.97;;
9675;SDS011;4876;42.656;23.292;2024-02-26T00:28:36;15.93;;;7.68;;
9675;SDS011;4876;42.656;23.292;2024-02-26T00:31:02;14.05;;;7.07;;
9675;SDS011;4876;42.656;23.292;2024-02-26T00:33:28;14.23;;;7.75;;
9675;SDS011;4876;42.656;23.292;2024-02-26T00:35:53;13.38;;;5.85;;
9675;SDS011;4876;42.656;23.292;2024-02-26T00:38:19;11.27;;;6.40;;
9675;SDS011;4876;42.656;23.292;2024-02-26T00:40:45;12.82;;;6.10;;
9675;SDS011;4876;42.656;23.292;2024-02-26T00:43:11;13.63;;;6.80;;
9675;SDS011;4876;42.656;23.292;2024-02-26T00:45:37;14.65;;;6.90;;
9675;SDS011;4876;42.656;23.292;2024-02-26T00:48:03;15.25;;;7.30;;
9675;SDS011;4876;42.656;23.292;2024-02-26T00:50:34;9.63;;;6.10;;
9675;SDS011;4876;42.656;23.292;2024-02-26T00:53:00;13.05;;;7.47;;
9675;SDS011;4876;42.656;23.292;2024-02-26T00:55:26;15.32;;;6.88;;
9675;SDS011;4876;42.656;23.292;2024-02-26T00:57:51;12.02;;;6.57;;
9675;SDS011;4876;42.656;23.292;2024-02-26T01:00:17;13.95;;;6.82;;
9675;SDS011;4876;42.656;23.292;2024-02-26T01:02:43;10.82;;;6.22;;
9675;SDS011;4876;42.656;23.292;2024-02-26T01:05:11;15.65;;;8.10;;
9675;SDS011;4876;42.656;23.292;2024-02-26T01:07:37;12.85;;;6.80;;
9675;SDS011;4876;42.656;23.292;2024-02-26T01:10:03;14.32;;;8.20;;
9675;SDS011;4876;42.656;23.292;2024-02-26T01:12:29;16.13;;;8.35;;
9675;SDS011;4876;42.656;23.292;2024-02-26T01:14:55;15.77;;;7.70;;
9675;SDS011;4876;42.656;23.292;2024-02-26T01:17:20;16.05;;;8.02;;
9675;SDS011;4876;42.656;23.292;2024-02-26T01:19:46;16.48;;;8.75;;
9675;SDS011;4876;42.656;23.292;2024-02-26T01:22:11;17.00;;;9.70;;
9675;SDS011;4876;42.656;23.292;2024-02-26T01:24:37;15.40;;;8.43;;
9675;SDS011;4876;42.656;23.292;2024-02-26T01:27:02;15.93;;;8.38;;
9675;SDS011;4876;42.656;23.292;2024-02-26T01:29:28;15.95;;;7.95;;
9675;SDS011;4876;42.656;23.292;2024-02-26T01:31:53;14.80;;;7.43;;
9675;SDS011;4876;42.656;23.292;2024-02-26T01:34:20;13.60;;;6.15;;
9675;SDS011;4876;42.656;23.292;2024-02-26T01:36:45;14.50;;;8.13;;
9675;SDS011;4876;42.656;23.292;2024-02-26T01:39:11;16.55;;;8.80;;
9675;SDS011;4876;42.656;23.292;2024-02-26T01:41:38;15.27;;;8.50;;
9675;SDS011;4876;42.656;23.292;2024-02-26T01:44:05;20.10;;;9.38;;
9675;SDS011;4876;42.656;23.292;2024-02-26T01:46:31;17.63;;;9.35;;
9675;SDS011;4876;42.656;23.292;2024-02-26T01:48:59;17.35;;;8.93;;
9675;SDS011;4876;42.656;23.292;2024-02-26T01:51:27;19.40;;;10.40;;
9675;SDS011;4876;42.656;23.292;2024-02-26T01:53:53;16.00;;;8.05;;
9675;SDS011;4876;42.656;23.292;2024-02-26T01:56:19;18.40;;;8.40;;
9675;SDS011;4876;42.656;23.292;2024-02-26T01:58:46;12.82;;;7.05;;
9675;SDS011;4876;42.656;23.292;2024-02-26T02:01:13;15.43;;;8.43;;
9675;SDS011;4876;42.656;23.292;2024-02-26T02:03:41;19.55;;;8.35;;
9675;SDS011;4876;42.656;23.292;2024-02-26T02:06:08;17.67;;;9.13;;
9675;SDS011;4876;42.656;23.292;2024-02-26T02:08:34;18.80;;;9.35;;
9675;SDS011;4876;42.656;23.292;2024-02-26T02:11:00;19.23;;;9.55;;
9675;SDS011;4876;42.656;23.292;2024-02-26T02:13:26;20.05;;;9.70;;
9675;SDS011;4876;42.656;23.292;2024-02-26T02:15:52;15.43;;;9.23;;
9675;SDS011;4876;42.656;23.292;2024-02-26T02:18:17;15.02;;;8.90;;
9675;SDS011;4876;42.656;23.292;2024-02-26T02:20:44;18.33;;;9.60;;
9675;SDS011;4876;42.656;23.292;2024-02-26T02:23:09;16.88;;;8.25;;
9675;SDS011;4876;42.656;23.292;2024-02-26T02:25:35;20.10;;;9.50;;
9675;SDS011;4876;42.656;23.292;2024-02-26T02:28:01;20.65;;;9.77;;
9675;SDS011;4876;42.656;23.292;2024-02-26T02:30:28;17.17;;;9.45;;
9675;SDS011;4876;42.656;23.292;2024-02-26T02:32:55;21.98;;;9.98;;
9675;SDS011;4876;42.656;23.292;2024-02-26T02:35:22;17.08;;;8.80;;
9675;SDS011;4876;42.656;23.292;2024-02-26T02:37:48;25.33;;;9.85;;
9675;SDS011;4876;42.656;23.292;2024-02-26T02:40:13;16.88;;;9.43;;
9675;SDS011;4876;42.656;23.292;2024-02-26T02:42:39;17.15;;;8.68;;
9675;SDS011;4876;42.656;23.292;2024-02-26T02:45:05;16.73;;;10.00;;
9675;SDS011;4876;42.656;23.292;2024-02-26T02:47:31;17.40;;;8.98;;
9675;SDS011;4876;42.656;23.292;2024-02-26T02:49:56;16.17;;;9.63;;
9675;SDS011;4876;42.656;23.292;2024-02-26T02:52:22;16.80;;;9.85;;
9675;SDS011;4876;42.656;23.292;2024-02-26T02:54:47;18.92;;;9.82;;
9675;SDS011;4876;42.656;23.292;2024-02-26T02:57:12;18.02;;;9.98;;
9675;SDS011;4876;42.656;23.292;2024-02-26T02:59:39;17.33;;;9.70;;
9675;SDS011;4876;42.656;23.292;2024-02-26T03:02:04;18.23;;;10.55;;
9675;SDS011;4876;42.656;23.292;2024-02-26T03:04:30;19.45;;;9.35;;
9675;SDS011;4876;42.656;23.292;2024-02-26T03:06:55;18.65;;;10.05;;
9675;SDS011;4876;42.656;23.292;2024-02-26T03:09:21;15.98;;;9.13;;
9675;SDS011;4876;42.656;23.292;2024-02-26T03:11:46;18.40;;;9.75;;
9675;SDS011;4876;42.656;23.292;2024-02-26T03:14:12;16.88;;;8.88;;
9675;SDS011;4876;42.656;23.292;2024-02-26T03:16:37;18.00;;;10.32;;
9675;SDS011;4876;42.656;23.292;2024-02-26T03:19:03;20.17;;;9.52;;
9675;SDS011;4876;42.656;23.292;2024-02-26T03:21:28;16.17;;;7.78;;
9675;SDS011;4876;42.656;23.292;2024-02-26T03:23:54;15.45;;;9.27;;
9675;SDS011;4876;42.656;23.292;2024-02-26T03:26:20;16.98;;;8.25;;
9675;SDS011;4876;42.656;23.292;2024-02-26T03:28:46;12.95;;;7.65;;
9675;SDS011;4876;42.656;23.292;2024-02-26T03:31:12;14.10;;;7.90;;
9675;SDS011;4876;42.656;23.292;2024-02-26T03:33:38;17.10;;;8.32;;
9675;SDS011;4876;42.656;23.292;2024-02-26T03:36:03;13.35;;;7.50;;
9675;SDS011;4876;42.656;23.292;2024-02-26T03:38:29;14.00;;;8.05;;
9675;SDS011;4876;42.656;23.292;2024-02-26T03:40:55;15.52;;;7.70;;
9675;SDS011;4876;42.656;23.292;2024-02-26T03:43:21;15.52;;;8.23;;
9675;SDS011;4876;42.656;23.292;2024-02-26T03:45:46;15.93;;;8.05;;
9675;SDS011;4876;42.656;23.292;2024-02-26T03:48:12;15.52;;;7.63;;
9675;SDS011;4876;42.656;23.292;2024-02-26T03:50:37;14.82;;;8.50;;
9675;SDS011;4876;42.656;23.292;2024-02-26T03:53:03;18.38;;;9.75;;
9675;SDS011;4876;42.656;23.292;2024-02-26T03:55:28;19.55;;;10.00;;
9675;SDS011;4876;42.656;23.292;2024-02-26T03:57:54;20.70;;;10.25;;
9675;SDS011;4876;42.656;23.292;2024-02-26T04:00:20;21.25;;;10.10;;
9675;SDS011;4876;42.656;23.292;2024-02-26T04:02:49;19.73;;;10.18;;
9675;SDS011;4876;42.656;23.292;2024-02-26T04:05:14;14.77;;;8.10;;
9675;SDS011;4876;42.656;23.292;2024-02-26T04:07:40;15.88;;;8.15;;
9675;SDS011;4876;42.656;23.292;2024-02-26T04:10:09;15.00;;;7.60;;
9675;SDS011;4876;42.656;23.292;2024-02-26T04:12:35;15.65;;;9.88;;
9675;SDS011;4876;42.656;23.292;2024-02-26T04:15:03;16.33;;;9.02;;
9675;SDS011;4876;42.656;23.292;2024-02-26T04:17:29;15.05;;;8.25;;
9675;SDS011;4876;42.656;23.292;2024-02-26T04:19:55;13.68;;;7.35;;
9675;SDS011;4876;42.656;23.292;2024-02-26T04:22:20;14.68;;;7.30;;
9675;SDS011;4876;42.656;23.292;2024-02-26T04:24:45;15.38;;;7.93;;
9675;SDS011;4876;42.656;23.292;2024-02-26T04:27:11;15.10;;;7.80;;
9675;SDS011;4876;42.656;23.292;2024-02-26T04:29:37;15.43;;;8.75;;
9675;SDS011;4876;42.656;23.292;2024-02-26T04:32:02;18.83;;;10.45;;
9675;SDS011;4876;42.656;23.292;2024-02-26T04:34:28;21.38;;;11.38;;
9675;SDS011;4876;42.656;23.292;2024-02-26T04:36:54;20.80;;;10.02;;
9675;SDS011;4876;42.656;23.292;2024-02-26T04:39:20;20.70;;;10.82;;
9675;SDS011;4876;42.656;23.292;2024-02-26T04:41:45;21.90;;;11.05;;
9675;SDS011;4876;42.656;23.292;2024-02-26T04:44:11;17.42;;;9.77;;
9675;SDS011;4876;42.656;23.292;2024-02-26T04:46:36;19.48;;;9.60;;
9675;SDS011;4876;42.656;23.292;2024-02-26T04:49:02;19.98;;;9.90;;
9675;SDS011;4876;42.656;23.292;2024-02-26T04:51:27;17.75;;;9.95;;
9675;SDS011;4876;42.656;23.292;2024-02-26T04:53:53;20.50;;;10.52;;
9675;SDS011;4876;42.656;23.292;2024-02-26T04:56:20;20.98;;;11.48;;
9675;SDS011;4876;42.656;23.292;2024-02-26T04:58:47;21.00;;;11.20;;
9675;SDS011;4876;42.656;23.292;2024-02-26T05:01:12;17.77;;;9.98;;
9675;SDS011;4876;42.656;23.292;2024-02-26T05:03:42;18.33;;;9.75;;
9675;SDS011;4876;42.656;23.292;2024-02-26T05:06:08;17.25;;;10.48;;
9675;SDS011;4876;42.656;23.292;2024-02-26T05:08:34;18.70;;;10.45;;
9675;SDS011;4876;42.656;23.292;2024-02-26T05:11:01;20.20;;;10.38;;
9675;SDS011;4876;42.656;23.292;2024-02-26T05:13:28;20.80;;;10.02;;
9675;SDS011;4876;42.656;23.292;2024-02-26T05:15:54;21.55;;;9.93;;
9675;SDS011;4876;42.656;23.292;2024-02-26T05:18:21;20.90;;;10.02;;
9675;SDS011;4876;42.656;23.292;2024-02-26T05:20:47;23.38;;;10.85;;
9675;SDS011;4876;42.656;23.292;2024-02-26T05:23:12;23.02;;;12.40;;
9675;SDS011;4876;42.656;23.292;2024-02-26T05:25:38;22.67;;;12.32;;
9675;SDS011;4876;42.656;23.292;2024-02-26T05:28:04;23.10;;;11.35;;
9675;SDS011;4876;42.656;23.292;2024-02-26T05:30:29;22.58;;;11.20;;
9675;SDS011;4876;42.656;23.292;2024-02-26T05:32:55;22.60;;;11.50;;
9675;SDS011;4876;42.656;23.292;2024-02-26T05:35:20;21.73;;;10.73;;
9675;SDS011;4876;42.656;23.292;2024-02-26T05:37:46;23.30;;;11.60;;
9675;SDS011;4876;42.656;23.292;2024-02-26T05:40:11;25.35;;;13.30;;
9675;SDS011;4876;42.656;23.292;2024-02-26T05:42:37;26.13;;;13.32;;
9675;SDS011;4876;42.656;23.292;2024-02-26T05:45:03;26.42;;;14.20;;
9675;SDS011;4876;42.656;23.292;2024-02-26T05:47:34;29.48;;;13.88;;
9675;SDS011;4876;42.656;23.292;2024-02-26T05:49:59;29.17;;;13.88;;
9675;SDS011;4876;42.656;23.292;2024-02-26T05:52:26;26.00;;;14.00;;
9675;SDS011;4876;42.656;23.292;2024-02-26T05:54:52;32.50;;;14.13;;
9675;SDS011;4876;42.656;23.292;2024-02-26T05:57:18;32.75;;;15.32;;
9675;SDS011;4876;42.656;23.292;2024-02-26T05:59:44;27.65;;;15.25;;
9675;SDS011;4876;42.656;23.292;2024-02-26T06:02:09;32.05;;;16.45;;
9675;SDS011;4876;42.656;23.292;2024-02-26T06:04:35;30.65;;;15.63;;
9675;SDS011;4876;42.656;23.292;2024-02-26T06:07:00;29.02;;;14.77;;
9675;SDS011;4876;42.656;23.292;2024-02-26T06:09:26;29.40;;;16.55;;
9675;SDS011;4876;42.656;23.292;2024-02-26T06:11:51;30.73;;;14.00;;
9675;SDS011;4876;42.656;23.292;2024-02-26T06:14:17;32.40;;;15.43;;
9675;SDS011;4876;42.656;23.292;2024-02-26T06:16:44;25.85;;;13.35;;
9675;SDS011;4876;42.656;23.292;2024-02-26T06:19:09;28.60;;;15.10;;
9675;SDS011;4876;42.656;23.292;2024-02-26T06:21:35;26.00;;;14.77;;
9675;SDS011;4876;42.656;23.292;2024-02-26T06:24:01;27.65;;;14.15;;
9675;SDS011;4876;42.656;23.292;2024-02-26T06:26:27;28.85;;;14.30;;
9675;SDS011;4876;42.656;23.292;2024-02-26T06:28:54;28.55;;;15.23;;
9675;SDS011;4876;42.656;23.292;2024-02-26T06:31:21;30.88;;;16.42;;
9675;SDS011;4876;42.656;23.292;2024-02-26T06:33:48;31.52;;;17.00;;
9675;SDS011;4876;42.656;23.292;2024-02-26T06:36:15;32.72;;;15.70;;
9675;SDS011;4876;42.656;23.292;2024-02-26T06:38:41;31.35;;;16.10;;
9675;SDS011;4876;42.656;23.292;2024-02-26T06:41:06;27.02;;;14.20;;
9675;SDS011;4876;42.656;23.292;2024-02-26T06:43:40;33.25;;;16.15;;
9675;SDS011;4876;42.656;23.292;2024-02-26T06:46:08;32.10;;;15.60;;
9675;SDS011;4876;42.656;23.292;2024-02-26T06:48:34;29.02;;;15.32;;
9675;SDS011;4876;42.656;23.292;2024-02-26T06:51:02;29.00;;;14.50;;
9675;SDS011;4876;42.656;23.292;2024-02-26T06:53:27;28.05;;;13.82;;
9675;SDS011;4876;42.656;23.292;2024-02-26T06:55:53;25.05;;;13.60;;
9675;SDS011;4876;42.656;23.292;2024-02-26T06:58:18;27.77;;;15.00;;
9675;SDS011;4876;42.656;23.292;2024-02-26T07:00:44;23.73;;;11.93;;
9675;SDS011;4876;42.656;23.292;2024-02-26T07:03:11;26.27;;;12.93;;
9675;SDS011;4876;42.656;23.292;2024-02-26T07:05:36;24.80;;;13.32;;
9675;SDS011;4876;42.656;23.292;2024-02-26T07:08:02;28.05;;;14.60;;
9675;SDS011;4876;42.656;23.292;2024-02-26T07:10:28;24.02;;;12.13;;
9675;SDS011;4876;42.656;23.292;2024-02-26T07:12:53;23.17;;;11.77;;
9675;SDS011;4876;42.656;23.292;2024-02-26T07:15:19;23.85;;;12.18;;
9675;SDS011;4876;42.656;23.292;2024-02-26T07:17:44;28.52;;;12.63;;
9675;SDS011;4876;42.656;23.292;2024-02-26T07:20:12;20.45;;;11.02;;
9675;SDS011;4876;42.656;23.292;2024-02-26T07:22:39;22.17;;;11.98;;
9675;SDS011;4876;42.656;23.292;2024-02-26T07:25:05;22.10;;;10.98;;
9675;SDS011;4876;42.656;23.292;2024-02-26T07:27:33;22.80;;;11.88;;
9675;SDS011;4876;42.656;23.292;2024-02-26T07:29:58;24.45;;;11.45;;
9675;SDS011;4876;42.656;23.292;2024-02-26T07:32:24;20.63;;;11.23;;
9675;SDS011;4876;42.656;23.292;2024-02-26T07:34:49;22.35;;;11.93;;
9675;SDS011;4876;42.656;23.292;2024-02-26T07:37:15;22.38;;;11.00;;
9675;SDS011;4876;42.656;23.292;2024-02-26T07:39:40;26.20;;;11.95;;
9675;SDS011;4876;42.656;23.292;2024-02-26T07:42:06;24.10;;;10.88;;
9675;SDS011;4876;42.656;23.292;2024-02-26T07:44:32;21.00;;;11.45;;
9675;SDS011;4876;42.656;23.292;2024-02-26T07:46:58;19.67;;;10.68;;
9675;SDS011;4876;42.656;23.292;2024-02-26T07:49:24;27.33;;;12.35;;
9675;SDS011;4876;42.656;23.292;2024-02-26T07:51:49;17.00;;;9.55;;
9675;SDS011;4876;42.656;23.292;2024-02-26T07:54:14;23.30;;;11.48;;
9675;SDS011;4876;42.656;23.292;2024-02-26T07:56:41;22.25;;;10.90;;
9675;SDS011;4876;42.656;23.292;2024-02-26T07:59:07;22.75;;;9.98;;
9675;SDS011;4876;42.656;23.292;2024-02-26T08:01:32;19.90;;;10.38;;
9675;SDS011;4876;42.656;23.292;2024-02-26T08:03:59;27.23;;;10.82;;
9675;SDS011;4876;42.656;23.292;2024-02-26T08:06:25;26.02;;;10.95;;
9675;SDS011;4876;42.656;23.292;2024-02-26T08:08:50;23.17;;;11.68;;
9675;SDS011;4876;42.656;23.292;2024-02-26T08:11:16;18.88;;;10.15;;
9675;SDS011;4876;42.656;23.292;2024-02-26T08:13:42;21.58;;;12.18;;
9675;SDS011;4876;42.656;23.292;2024-02-26T08:16:07;22.90;;;11.52;;
9675;SDS011;4876;42.656;23.292;2024-02-26T08:18:33;20.58;;;11.25;;
9675;SDS011;4876;42.656;23.292;2024-02-26T08:20:58;26.00;;;11.18;;
9675;SDS011;4876;42.656;23.292;2024-02-26T08:23:24;20.67;;;10.68;;
9675;SDS011;4876;42.656;23.292;2024-02-26T08:25:50;19.83;;;10.10;;
9675;SDS011;4876;42.656;23.292;2024-02-26T08:28:15;22.52;;;11.27;;
9675;SDS011;4876;42.656;23.292;2024-02-26T08:30:43;24.02;;;12.60;;
9675;SDS011;4876;42.656;23.292;2024-02-26T08:33:09;28.30;;;12.77;;
9675;SDS011;4876;42.656;23.292;2024-02-26T08:35:35;20.17;;;11.60;;
9675;SDS011;4876;42.656;23.292;2024-02-26T08:38:01;23.35;;;12.98;;
9675;SDS011;4876;42.656;23.292;2024-02-26T08:40:26;34.78;;;18.38;;
9675;SDS011;4876;42.656;23.292;2024-02-26T08:42:52;38.42;;;20.00;;
9675;SDS011;4876;42.656;23.292;2024-02-26T08:45:18;35.28;;;20.00;;
9675;SDS011;4876;42.656;23.292;2024-02-26T08:47:44;37.03;;;20.42;;
9675;SDS011;4876;42.656;23.292;2024-02-26T08:50:10;37.33;;;20.13;;
9675;SDS011;4876;42.656;23.292;2024-02-26T08:52:37;33.50;;;18.67;;
9675;SDS011;4876;42.656;23.292;2024-02-26T08:55:03;39.30;;;20.67;;
9675;SDS011;4876;42.656;23.292;2024-02-26T08:57:30;45.45;;;22.80;;
9675;SDS011;4876;42.656;23.292;2024-02-26T08:59:59;37.55;;;21.25;;
9675;SDS011;4876;42.656;23.292;2024-02-26T09:02:25;48.58;;;21.90;;
9675;SDS011;4876;42.656;23.292;2024-02-26T09:04:51;37.10;;;19.83;;
9675;SDS011;4876;42.656;23.292;2024-02-26T09:07:18;38.78;;;19.80;;
9675;SDS011;4876;42.656;23.292;2024-02-26T09:09:44;34.40;;;18.08;;
9675;SDS011;4876;42.656;23.292;2024-02-26T09:12:09;26.52;;;14.93;;
9675;SDS011;4876;42.656;23.292;2024-02-26T09:14:35;9.73;;;6.53;;
9675;SDS011;4876;42.656;23.292;2024-02-26T09:17:00;9.23;;;5.43;;
9675;SDS011;4876;42.656;23.292;2024-02-26T09:19:26;8.60;;;3.63;;
9675;SDS011;4876;42.656;23.292;2024-02-26T09:21:52;11.35;;;4.65;;
9675;SDS011;4876;42.656;23.292;2024-02-26T09:24:22;13.30;;;5.60;;
9675;SDS011;4876;42.656;23.292;2024-02-26T09:26:48;9.80;;;5.20;;
9675;SDS011;4876;42.656;23.292;2024-02-26T09:29:14;12.23;;;5.15;;
9675;SDS011;4876;42.656;23.292;2024-02-26T09:31:39;12.15;;;5.82;;
9675;SDS011;4876;42.656;23.292;2024-02-26T09:34:06;9.68;;;3.45;;
9675;SDS011;4876;42.656;23.292;2024-02-26T09:36:32;8.82;;;4.45;;
9675;SDS011;4876;42.656;23.292;2024-02-26T09:38:58;6.60;;;4.38;;
9675;SDS011;4876;42.656;23.292;2024-02-26T09:41:24;6.90;;;3.45;;
9675;SDS011;4876;42.656;23.292;2024-02-26T09:43:53;7.75;;;3.92;;
9675;SDS011;4876;42.656;23.292;2024-02-26T09:46:22;6.45;;;3.35;;
9675;SDS011;4876;42.656;23.292;2024-02-26T09:48:49;11.07;;;4.70;;
9675;SDS011;4876;42.656;23.292;2024-02-26T09:51:15;6.70;;;3.90;;
9675;SDS011;4876;42.656;23.292;2024-02-26T09:53:43;9.30;;;5.00;;
9675;SDS011;4876;42.656;23.292;2024-02-26T09:56:11;7.43;;;3.78;;
9675;SDS011;4876;42.656;23.292;2024-02-26T09:58:38;6.28;;;3.83;;
9675;SDS011;4876;42.656;23.292;2024-02-26T10:01:09;9.43;;;4.45;;
9675;SDS011;4876;42.656;23.292;2024-02-26T10:03:38;6.13;;;3.22;;
9675;SDS011;4876;42.656;23.292;2024-02-26T10:06:07;8.70;;;4.15;;
9675;SDS011;4876;42.656;23.292;2024-02-26T10:08:34;8.07;;;5.10;;
9675;SDS011;4876;42.656;23.292;2024-02-26T10:11:00;6.35;;;3.42;;
9675;SDS011;4876;42.656;23.292;2024-02-26T10:13:26;8.45;;;4.88;;
9675;SDS011;4876;42.656;23.292;2024-02-26T10:15:52;7.80;;;4.47;;
9675;SDS011;4876;42.656;23.292;2024-02-26T10:18:18;9.90;;;4.78;;
9675;SDS011;4876;42.656;23.292;2024-02-26T10:21:05;7.35;;;3.65;;
9675;SDS011;4876;42.656;23.292;2024-02-26T10:23:30;8.27;;;3.90;;
9675;SDS011;4876;42.656;23.292;2024-02-26T10:25:55;10.55;;;4.90;;
9675;SDS011;4876;42.656;23.292;2024-02-26T10:28:22;5.82;;;3.65;;
9675;SDS011;4876;42.656;23.292;2024-02-26T10:30:48;6.55;;;4.55;;
9675;SDS011;4876;42.656;23.292;2024-02-26T10:33:14;10.48;;;4.75;;
9675;SDS011;4876;42.656;23.292;2024-02-26T10:35:41;9.07;;;4.55;;
9675;SDS011;4876;42.656;23.292;2024-02-26T10:38:11;8.93;;;4.97;;
9675;SDS011;4876;42.656;23.292;2024-02-26T10:40:37;4.95;;;3.47;;
9675;SDS011;4876;42.656;23.292;2024-02-26T10:43:02;7.45;;;3.50;;
9675;SDS011;4876;42.656;23.292;2024-02-26T10:45:28;5.20;;;3.05;;
9675;SDS011;4876;42.656;23.292;2024-02-26T10:47:53;4.85;;;3.33;;
9675;SDS011;4876;42.656;23.292;2024-02-26T10:50:19;6.63;;;3.95;;
9675;SDS011;4876;42.656;23.292;2024-02-26T10:52:45;10.13;;;5.10;;
9675;SDS011;4876;42.656;23.292;2024-02-26T10:55:16;8.80;;;4.30;;
9675;SDS011;4876;42.656;23.292;2024-02-26T10:57:45;7.82;;;3.88;;
9675;SDS011;4876;42.656;23.292;2024-02-26T11:00:14;9.10;;;4.95;;
9675;SDS011;4876;42.656;23.292;2024-02-26T11:02:41;5.38;;;3.80;;
9675;SDS011;4876;42.656;23.292;2024-02-26T11:05:09;7.03;;;3.22;;
9675;SDS011;4876;42.656;23.292;2024-02-26T11:07:36;9.05;;;4.53;;
9675;SDS011;4876;42.656;23.292;2024-02-26T11:10:03;8.68;;;5.00;;
9675;SDS011;4876;42.656;23.292;2024-02-26T11:12:30;7.60;;;3.13;;
9675;SDS011;4876;42.656;23.292;2024-02-26T11:14:57;9.27;;;5.80;;
9675;SDS011;4876;42.656;23.292;2024-02-26T11:17:27;8.63;;;3.00;;
9675;SDS011;4876;42.656;23.292;2024-02-26T11:19:56;9.32;;;4.15;;
9675;SDS011;4876;42.656;23.292;2024-02-26T11:22:23;7.68;;;4.70;;
9675;SDS011;4876;42.656;23.292;2024-02-26T11:24:55;8.07;;;3.85;;
9675;SDS011;4876;42.656;23.292;2024-02-26T11:27:27;5.53;;;4.03;;
9675;SDS011;4876;42.656;23.292;2024-02-26T11:30:01;7.30;;;4.43;;
9675;SDS011;4876;42.656;23.292;2024-02-26T11:32:30;7.45;;;4.95;;
9675;SDS011;4876;42.656;23.292;2024-02-26T11:34:56;9.20;;;3.78;;
9675;SDS011;4876;42.656;23.292;2024-02-26T11:37:23;7.03;;;3.95;;
9675;SDS011;4876;42.656;23.292;2024-02-26T11:39:51;7.07;;;4.32;;
9675;SDS011;4876;42.656;23.292;2024-02-26T11:42:17;7.85;;;4.47;;
9675;SDS011;4876;42.656;23.292;2024-02-26T11:44:48;7.97;;;4.50;;
9675;SDS011;4876;42.656;23.292;2024-02-26T11:47:18;7.13;;;3.88;;
9675;SDS011;4876;42.656;23.292;2024-02-26T11:49:45;6.68;;;4.18;;
9675;SDS011;4876;42.656;23.292;2024-02-26T11:52:12;6.30;;;4.25;;
9675;SDS011;4876;42.656;23.292;2024-02-26T11:54:57;7.32;;;3.83;;
9675;SDS011;4876;42.656;23.292;2024-02-26T12:00:15;7.22;;;4.32;;
9675;SDS011;4876;42.656;23.292;2024-02-26T12:05:26;7.82;;;4.43;;
9675;SDS011;4876;42.656;23.292;2024-02-26T12:07:59;7.38;;;3.60;;
9675;SDS011;4876;42.656;23.292;2024-02-26T12:10:46;5.60;;;3.40;;
9675;SDS011;4876;42.656;23.292;2024-02-26T12:13:14;6.63;;;4.40;;
9675;SDS011;4876;42.656;23.292;2024-02-26T12:15:41;4.38;;;3.10;;
9675;SDS011;4876;42.656;23.292;2024-02-26T12:18:09;5.72;;;3.88;;
9675;SDS011;4876;42.656;23.292;2024-02-26T12:20:40;5.20;;;2.97;;
9675;SDS011;4876;42.656;23.292;2024-02-26T12:23:05;8.45;;;3.50;;
9675;SDS011;4876;42.656;23.292;2024-02-26T12:25:31;6.55;;;3.05;;
9675;SDS011;4876;42.656;23.292;2024-02-26T12:27:58;7.53;;;2.90;;
9675;SDS011;4876;42.656;23.292;2024-02-26T12:30:24;8.45;;;3.20;;
9675;SDS011;4876;42.656;23.292;2024-02-26T12:32:51;3.95;;;3.03;;
9675;SDS011;4876;42.656;23.292;2024-02-26T12:35:22;3.78;;;2.38;;
9675;SDS011;4876;42.656;23.292;2024-02-26T12:37:48;3.70;;;2.30;;
9675;SDS011;4876;42.656;23.292;2024-02-26T12:40:13;5.40;;;4.10;;
9675;SDS011;4876;42.656;23.292;2024-02-26T12:42:39;3.78;;;2.55;;
9675;SDS011;4876;42.656;23.292;2024-02-26T12:45:09;5.63;;;2.65;;
9675;SDS011;4876;42.656;23.292;2024-02-26T12:47:37;9.52;;;3.00;;
9675;SDS011;4876;42.656;23.292;2024-02-26T12:50:06;5.20;;;3.35;;
9675;SDS011;4876;42.656;23.292;2024-02-26T12:52:35;7.60;;;3.53;;
9675;SDS011;4876;42.656;23.292;2024-02-26T12:55:04;6.20;;;2.75;;
9675;SDS011;4876;42.656;23.292;2024-02-26T12:57:32;5.72;;;3.33;;
9675;SDS011;4876;42.656;23.292;2024-02-26T13:00:01;11.15;;;3.70;;
9675;SDS011;4876;42.656;23.292;2024-02-26T13:02:29;5.47;;;2.63;;
9675;SDS011;4876;42.656;23.292;2024-02-26T13:04:56;6.30;;;3.13;;
9675;SDS011;4876;42.656;23.292;2024-02-26T13:07:22;10.38;;;3.42;;
9675;SDS011;4876;42.656;23.292;2024-02-26T13:09:47;7.57;;;3.20;;
9675;SDS011;4876;42.656;23.292;2024-02-26T13:12:13;6.47;;;2.60;;
9675;SDS011;4876;42.656;23.292;2024-02-26T13:14:39;4.75;;;2.65;;
9675;SDS011;4876;42.656;23.292;2024-02-26T13:17:05;4.75;;;2.40;;
9675;SDS011;4876;42.656;23.292;2024-02-26T13:19:31;5.75;;;2.47;;
9675;SDS011;4876;42.656;23.292;2024-02-26T13:22:06;6.40;;;2.67;;
9675;SDS011;4876;42.656;23.292;2024-02-26T13:24:35;6.15;;;2.78;;
9675;SDS011;4876;42.656;23.292;2024-02-26T13:27:02;6.03;;;2.53;;
9675;SDS011;4876;42.656;23.292;2024-02-26T13:29:30;4.15;;;2.60;;
9675;SDS011;4876;42.656;23.292;2024-02-26T13:31:59;3.90;;;2.50;;
9675;SDS011;4876;42.656;23.292;2024-02-26T13:34:25;4.28;;;2.58;;
9675;SDS011;4876;42.656;23.292;2024-02-26T13:36:52;6.50;;;2.78;;
9675;SDS011;4876;42.656;23.292;2024-02-26T13:39:23;5.07;;;2.25;;
9675;SDS011;4876;42.656;23.292;2024-02-26T13:41:50;6.93;;;2.83;;
9675;SDS011;4876;42.656;23.292;2024-02-26T13:44:16;10.63;;;3.65;;
9675;SDS011;4876;42.656;23.292;2024-02-26T13:46:42;4.75;;;2.60;;
9675;SDS011;4876;42.656;23.292;2024-02-26T13:49:08;4.10;;;2.50;;
9675;SDS011;4876;42.656;23.292;2024-02-26T13:51:35;5.40;;;2.60;;
9675;SDS011;4876;42.656;23.292;2024-02-26T13:54:02;4.35;;;2.22;;
9675;SDS011;4876;42.656;23.292;2024-02-26T13:56:28;8.13;;;2.95;;
9675;SDS011;4876;42.656;23.292;2024-02-26T13:58:54;7.35;;;2.92;;
9675;SDS011;4876;42.656;23.292;2024-02-26T14:01:19;7.18;;;2.72;;
9675;SDS011;4876;42.656;23.292;2024-02-26T14:03:45;7.28;;;3.03;;
9675;SDS011;4876;42.656;23.292;2024-02-26T14:06:10;4.72;;;2.85;;
9675;SDS011;4876;42.656;23.292;2024-02-26T14:08:36;6.15;;;3.00;;
9675;SDS011;4876;42.656;23.292;2024-02-26T14:11:02;4.95;;;2.50;;
9675;SDS011;4876;42.656;23.292;2024-02-26T14:13:27;8.57;;;3.70;;
9675;SDS011;4876;42.656;23.292;2024-02-26T14:15:53;5.65;;;2.72;;
9675;SDS011;4876;42.656;23.292;2024-02-26T14:18:19;6.07;;;2.90;;
9675;SDS011;4876;42.656;23.292;2024-02-26T14:20:44;5.90;;;3.03;;
9675;SDS011;4876;42.656;23.292;2024-02-26T14:23:10;5.93;;;2.58;;
9675;SDS011;4876;42.656;23.292;2024-02-26T14:25:36;4.68;;;2.67;;
9675;SDS011;4876;42.656;23.292;2024-02-26T14:28:02;6.72;;;2.85;;
9675;SDS011;4876;42.656;23.292;2024-02-26T14:30:28;4.43;;;2.40;;
9675;SDS011;4876;42.656;23.292;2024-02-26T14:32:54;4.43;;;2.42;;
9675;SDS011;4876;42.656;23.292;2024-02-26T14:35:19;8.48;;;3.17;;
9675;SDS011;4876;42.656;23.292;2024-02-26T14:37:45;9.48;;;3.38;;
9675;SDS011;4876;42.656;23.292;2024-02-26T14:40:15;10.88;;;3.35;;
9675;SDS011;4876;42.656;23.292;2024-02-26T14:42:41;6.13;;;2.63;;
9675;SDS011;4876;42.656;23.292;2024-02-26T14:45:07;5.50;;;2.55;;
9675;SDS011;4876;42.656;23.292;2024-02-26T14:47:34;4.63;;;2.33;;
9675;SDS011;4876;42.656;23.292;2024-02-26T14:50:00;5.63;;;2.70;;